Bookmark and Share
Track history (hours):
 

Rosaria Lauro

Last reported at 2014-Apr-24 09:34 UTC. Time now 2014-Apr-24 09:40 UTC.
Position N 40°47' E 014°07'.

Length 40 m.

MMSI: 247055900.

NotesDate/timePositionNaut miles runAvg speedWind from/ knotsBaromVisibWave heightAir tempDewpointWater temp
2014-Apr-24 09:34N 40°47' E 014°07'8 8.4
2014-Apr-24 08:33N 40°50' E 014°17'1616.1
2014-Apr-24 07:34N 40°45' E 013°57'1613.7
2014-Apr-24 06:25N 40°49' E 014°17'7 8.5
2014-Apr-24 05:34N 40°46' E 014°08'1212.3
2014-Apr-24 04:33N 40°44' E 013°52'0 0.0
2014-Apr-23 16:34N 40°44' E 013°52'2019.1
2014-Apr-23 15:32N 40°49' E 014°17'1111.0
2014-Apr-23 14:34N 40°46' E 014°03'5 5.0
2014-Apr-23 13:34N 40°45' E 013°57'1611.1
2014-Apr-23 12:08N 40°50' E 014°17'1323.1
2014-Apr-23 11:34N 40°46' E 013°60'7 6.7
2014-Apr-23 10:33N 40°44' E 013°52'5 4.8
2014-Apr-23 09:34N 40°45' E 013°58'1511.4
2014-Apr-23 08:16N 40°50' E 014°16'1622.1
2014-Apr-23 07:34N 40°46' E 013°56'1514.0
2014-Apr-23 06:30N 40°48' E 014°16'7 7.7
2014-Apr-23 05:33N 40°46' E 014°06'1111.3
2014-Apr-23 04:33N 40°44' E 013°52'0 0.0
2014-Apr-22 17:30N 40°44' E 013°52'0 0.0
2014-Apr-22 16:33N 40°44' E 013°52'1717.3
2014-Apr-22 15:33N 40°48' E 014°14'3 3.1
2014-Apr-22 14:33N 40°47' E 014°10'1414.3
2014-Apr-22 13:33N 40°44' E 013°52'2014.9
2014-Apr-22 12:14N 40°50' E 014°16'1421.4
2014-Apr-22 11:34N 40°45' E 013°58'5 5.2
2014-Apr-22 10:33N 40°44' E 013°52'1414.4
2014-Apr-22 09:34N 40°47' E 014°10'5 5.1
2014-Apr-22 08:33N 40°49' E 014°16'1817.8
2014-Apr-22 07:33N 40°46' E 013°53'1816.9
2014-Apr-22 06:30N 40°49' E 014°17'1010.4
2014-Apr-22 05:34N 40°46' E 014°04'10 9.9
2014-Apr-22 04:33N 40°44' E 013°52'0 0.0
2014-Apr-22 03:33N 40°44' E 013°52'0 0.0
2014-Apr-22 02:33N 40°44' E 013°52'0 0.0
2014-Apr-22 01:33N 40°44' E 013°52'0 0.0
2014-Apr-22 00:33N 40°44' E 013°52'0 0.0
2014-Apr-21 23:33N 40°44' E 013°52'0 0.0
2014-Apr-21 22:33N 40°44' E 013°52'0 0.0
2014-Apr-21 21:33N 40°44' E 013°52'0 0.0
2014-Apr-21 20:33N 40°44' E 013°52'0 0.3
2014-Apr-21 19:33N 40°45' E 013°52'1914.7
2014-Apr-21 18:15N 40°50' E 014°16'1420.2
2014-Apr-21 17:34N 40°46' E 013°59'6 5.5
2014-Apr-21 16:33N 40°44' E 013°52'11 5.7
2014-Apr-21 14:34N 40°46' E 014°06'8 7.6
2014-Apr-21 13:33N 40°45' E 013°56'4 0.2
2014-Apr-20 16:33N 40°44' E 013°52'1818.1
2014-Apr-20 15:33N 40°49' E 014°15'8 8.4
2014-Apr-20 14:34N 40°46' E 014°04'6 6.3
2014-Apr-20 13:33N 40°45' E 013°56'1510.8
2014-Apr-20 12:08N 40°50' E 014°15'1018.4
2014-Apr-20 11:34N 40°46' E 014°02'9 8.5
2014-Apr-20 10:33N 40°44' E 013°52'8 7.7
2014-Apr-20 09:34N 40°46' E 014°01'12 9.8
2014-Apr-20 08:19N 40°50' E 014°17'1621.6
2014-Apr-20 07:33N 40°45' E 013°56'4 3.7
2014-Apr-20 06:33N 40°44' E 013°52'0 0.0
2014-Apr-19 17:13N 40°44' E 013°52'4 6.4
2014-Apr-19 16:34N 40°45' E 013°57'1511.8
2014-Apr-19 15:15N 40°50' E 014°16'1623.0
2014-Apr-19 14:33N 40°45' E 013°57'0 0.1
2014-Apr-19 13:33N 40°45' E 013°57'1611.0
2014-Apr-19 12:08N 40°50' E 014°16'1220.8
2014-Apr-19 11:34N 40°46' E 014°01'8 7.6
2014-Apr-19 10:33N 40°44' E 013°52'9 8.7
2014-Apr-19 09:34N 40°47' E 014°03'11 9.2
2014-Apr-19 08:22N 40°50' E 014°16'1619.7
2014-Apr-19 07:34N 40°45' E 013°56'1212.0
2014-Apr-19 06:33N 40°48' E 014°12'3 2.8
2014-Apr-19 05:33N 40°46' E 014°09'1313.2
2014-Apr-19 04:33N 40°44' E 013°52'4 0.3
2014-Apr-18 16:33N 40°45' E 013°56'1611.2
2014-Apr-18 15:07N 40°50' E 014°16'1424.4
2014-Apr-18 14:34N 40°44' E 013°60'3 2.8
2014-Apr-18 13:33N 40°45' E 013°56'1610.9
2014-Apr-18 12:05N 40°50' E 014°16'1223.0
2014-Apr-18 11:33N 40°44' E 014°02'8 7.8
2014-Apr-18 10:34N 40°44' E 013°52'9 8.7
2014-Apr-18 09:34N 40°46' E 014°03'11 9.4
2014-Apr-18 08:22N 40°50' E 014°17'1620.0
2014-Apr-18 07:33N 40°45' E 013°56'1211.5
2014-Apr-18 06:33N 40°47' E 014°11'15 1.1
2014-Apr-17 16:32N 40°44' E 013°52'2018.8
2014-Apr-17 15:30N 40°49' E 014°17'1010.5
2014-Apr-17 14:34N 40°46' E 014°04'6 6.0
2014-Apr-17 13:33N 40°45' E 013°56'1611.1
2014-Apr-17 12:07N 40°50' E 014°16'1323.0
2014-Apr-17 11:34N 40°46' E 014°00'7 6.9
2014-Apr-17 10:33N 40°44' E 013°52'7 7.4
2014-Apr-17 09:34N 40°46' E 014°01'1210.7
2014-Apr-17 08:24N 40°50' E 014°17'1619.2
2014-Apr-17 07:33N 40°45' E 013°56'1111.4
2014-Apr-17 06:33N 40°47' E 014°11'3 2.7
2014-Apr-17 05:33N 40°46' E 014°08'1211.8
2014-Apr-17 04:34N 40°46' E 013°52'3 0.3
2014-Apr-16 17:12N 40°45' E 013°56'0 0.0
2014-Apr-16 16:34N 40°45' E 013°56'1610.8
2014-Apr-16 15:05N 40°50' E 014°16'1121.4
2014-Apr-16 14:34N 40°47' E 014°02'4 4.4
2014-Apr-16 13:33N 40°45' E 013°57'1611.3
2014-Apr-16 12:08N 40°50' E 014°17'1323.0
2014-Apr-16 11:34N 40°47' E 013°60'7 6.7
2014-Apr-16 10:33N 40°44' E 013°52'6 5.9
2014-Apr-16 09:34N 40°46' E 013°59'1411.9
2014-Apr-16 08:23N 40°50' E 014°17'1619.7
2014-Apr-16 07:34N 40°45' E 013°56'1111.4
2014-Apr-16 06:34N 40°47' E 014°11'5 5.3
2014-Apr-16 05:34N 40°46' E 014°04'1 0.1
2014-Apr-15 10:34N 40°46' E 014°02'1110.3
2014-Apr-15 09:29N 40°50' E 014°16'1617.2
2014-Apr-15 08:34N 40°45' E 013°56'0 0.0
2014-Apr-15 07:34N 40°45' E 013°56'0 0.1
2014-Apr-15 05:34N 40°45' E 013°56'0 0.1
2014-Apr-15 03:34N 40°45' E 013°56'4 0.3
2014-Apr-14 15:34N 40°45' E 013°52'1918.4
2014-Apr-14 14:31N 40°49' E 014°16'1010.5
2014-Apr-14 13:34N 40°46' E 014°03'1 0.3
2014-Apr-14 10:34N 40°46' E 014°02'  

Dump ship's entire track history

sailing weather and tide predictions

Rosaria Lauro — IXXO — position and weather